sensor_id;sensor_type;location;lat;lon;timestamp;P1;durP1;ratioP1;P2;durP2;ratioP2
59054;SDS011;44845;51.444;7.460;2023-07-29T00:00:19;1.52;;;1.20;;
59054;SDS011;44845;51.444;7.460;2023-07-29T00:02:45;4.10;;;1.40;;
59054;SDS011;44845;51.444;7.460;2023-07-29T00:05:10;2.20;;;1.30;;
59054;SDS011;44845;51.444;7.460;2023-07-29T00:07:36;2.58;;;1.05;;
59054;SDS011;44845;51.444;7.460;2023-07-29T00:10:01;4.00;;;1.40;;
59054;SDS011;44845;51.444;7.460;2023-07-29T00:12:28;1.40;;;1.30;;
59054;SDS011;44845;51.444;7.460;2023-07-29T00:14:53;1.75;;;1.50;;
59054;SDS011;44845;51.444;7.460;2023-07-29T00:17:19;5.07;;;1.20;;
59054;SDS011;44845;51.444;7.460;2023-07-29T00:19:45;1.20;;;1.10;;
59054;SDS011;44845;51.444;7.460;2023-07-29T00:22:10;2.85;;;1.17;;
59054;SDS011;44845;51.444;7.460;2023-07-29T00:24:36;1.35;;;1.20;;
59054;SDS011;44845;51.444;7.460;2023-07-29T00:27:01;2.33;;;1.05;;
59054;SDS011;44845;51.444;7.460;2023-07-29T00:29:27;1.40;;;1.30;;
59054;SDS011;44845;51.444;7.460;2023-07-29T00:31:52;3.72;;;1.55;;
59054;SDS011;44845;51.444;7.460;2023-07-29T00:34:17;1.98;;;1.20;;
59054;SDS011;44845;51.444;7.460;2023-07-29T00:36:44;2.35;;;1.58;;
59054;SDS011;44845;51.444;7.460;2023-07-29T00:39:10;1.75;;;1.30;;
59054;SDS011;44845;51.444;7.460;2023-07-29T00:41:35;4.45;;;1.80;;
59054;SDS011;44845;51.444;7.460;2023-07-29T00:44:01;1.92;;;1.45;;
59054;SDS011;44845;51.444;7.460;2023-07-29T00:46:27;1.92;;;1.70;;
59054;SDS011;44845;51.444;7.460;2023-07-29T00:48:53;1.83;;;1.70;;
59054;SDS011;44845;51.444;7.460;2023-07-29T00:51:19;1.73;;;1.63;;
59054;SDS011;44845;51.444;7.460;2023-07-29T00:53:45;2.08;;;1.55;;
59054;SDS011;44845;51.444;7.460;2023-07-29T00:56:10;4.80;;;1.60;;
59054;SDS011;44845;51.444;7.460;2023-07-29T00:58:36;2.20;;;1.40;;
59054;SDS011;44845;51.444;7.460;2023-07-29T01:01:01;2.80;;;1.52;;
59054;SDS011;44845;51.444;7.460;2023-07-29T01:03:27;1.75;;;1.65;;
59054;SDS011;44845;51.444;7.460;2023-07-29T01:08:43;4.28;;;1.58;;
59054;SDS011;44845;51.444;7.460;2023-07-29T01:11:20;2.03;;;1.60;;
59054;SDS011;44845;51.444;7.460;2023-07-29T01:13:58;1.70;;;1.60;;
59054;SDS011;44845;51.444;7.460;2023-07-29T01:16:32;1.50;;;1.30;;
59054;SDS011;44845;51.444;7.460;2023-07-29T01:19:05;1.67;;;1.40;;
59054;SDS011;44845;51.444;7.460;2023-07-29T01:21:35;3.33;;;1.30;;
59054;SDS011;44845;51.444;7.460;2023-07-29T01:24:01;2.25;;;1.20;;
59054;SDS011;44845;51.444;7.460;2023-07-29T01:26:27;2.35;;;1.35;;
59054;SDS011;44845;51.444;7.460;2023-07-29T01:28:54;1.35;;;1.17;;
59054;SDS011;44845;51.444;7.460;2023-07-29T01:31:27;1.88;;;1.27;;
59054;SDS011;44845;51.444;7.460;2023-07-29T01:34:12;1.55;;;1.42;;
59054;SDS011;44845;51.444;7.460;2023-07-29T01:36:42;1.58;;;1.35;;
59054;SDS011;44845;51.444;7.460;2023-07-29T01:39:10;2.42;;;1.42;;
59054;SDS011;44845;51.444;7.460;2023-07-29T01:41:37;1.52;;;1.42;;
59054;SDS011;44845;51.444;7.460;2023-07-29T01:44:02;2.53;;;1.33;;
59054;SDS011;44845;51.444;7.460;2023-07-29T01:46:28;1.30;;;1.20;;
59054;SDS011;44845;51.444;7.460;2023-07-29T01:48:54;3.90;;;1.30;;
59054;SDS011;44845;51.444;7.460;2023-07-29T01:51:19;3.67;;;1.08;;
59054;SDS011;44845;51.444;7.460;2023-07-29T01:53:45;1.92;;;1.35;;
59054;SDS011;44845;51.444;7.460;2023-07-29T01:56:11;1.42;;;1.30;;
59054;SDS011;44845;51.444;7.460;2023-07-29T01:58:36;2.75;;;1.25;;
59054;SDS011;44845;51.444;7.460;2023-07-29T02:01:01;3.13;;;1.50;;
59054;SDS011;44845;51.444;7.460;2023-07-29T02:03:27;1.83;;;1.27;;
59054;SDS011;44845;51.444;7.460;2023-07-29T02:05:53;3.47;;;1.50;;
59054;SDS011;44845;51.444;7.460;2023-07-29T02:08:18;10.40;;;1.25;;
59054;SDS011;44845;51.444;7.460;2023-07-29T02:10:43;1.23;;;1.20;;
59054;SDS011;44845;51.444;7.460;2023-07-29T02:13:10;1.15;;;1.13;;
59054;SDS011;44845;51.444;7.460;2023-07-29T02:15:35;1.40;;;1.30;;
59054;SDS011;44845;51.444;7.460;2023-07-29T02:18:01;1.45;;;1.40;;
59054;SDS011;44845;51.444;7.460;2023-07-29T02:20:27;2.13;;;1.30;;
59054;SDS011;44845;51.444;7.460;2023-07-29T02:22:52;3.08;;;1.23;;
59054;SDS011;44845;51.444;7.460;2023-07-29T02:25:17;6.65;;;1.30;;
59054;SDS011;44845;51.444;7.460;2023-07-29T02:27:43;2.00;;;1.20;;
59054;SDS011;44845;51.444;7.460;2023-07-29T02:30:08;2.28;;;1.08;;
59054;SDS011;44845;51.444;7.460;2023-07-29T02:32:37;1.80;;;1.20;;
59054;SDS011;44845;51.444;7.460;2023-07-29T02:35:03;3.28;;;1.48;;
59054;SDS011;44845;51.444;7.460;2023-07-29T02:37:29;1.73;;;1.45;;
59054;SDS011;44845;51.444;7.460;2023-07-29T02:39:55;3.05;;;1.17;;
59054;SDS011;44845;51.444;7.460;2023-07-29T02:42:20;3.15;;;1.55;;
59054;SDS011;44845;51.444;7.460;2023-07-29T02:44:46;1.33;;;1.15;;
59054;SDS011;44845;51.444;7.460;2023-07-29T02:47:11;3.38;;;1.50;;
59054;SDS011;44845;51.444;7.460;2023-07-29T02:49:37;2.83;;;1.30;;
59054;SDS011;44845;51.444;7.460;2023-07-29T02:52:02;5.60;;;1.23;;
59054;SDS011;44845;51.444;7.460;2023-07-29T02:54:27;3.92;;;1.38;;
59054;SDS011;44845;51.444;7.460;2023-07-29T02:56:53;3.55;;;1.27;;
59054;SDS011;44845;51.444;7.460;2023-07-29T02:59:18;2.85;;;1.33;;
59054;SDS011;44845;51.444;7.460;2023-07-29T03:01:44;5.57;;;1.38;;
59054;SDS011;44845;51.444;7.460;2023-07-29T03:04:10;6.10;;;1.48;;
59054;SDS011;44845;51.444;7.460;2023-07-29T03:06:38;3.33;;;1.88;;
59054;SDS011;44845;51.444;7.460;2023-07-29T03:09:03;2.33;;;1.42;;
59054;SDS011;44845;51.444;7.460;2023-07-29T03:11:29;4.90;;;1.45;;
59054;SDS011;44845;51.444;7.460;2023-07-29T03:13:56;3.22;;;1.70;;
59054;SDS011;44845;51.444;7.460;2023-07-29T03:16:21;4.22;;;1.75;;
59054;SDS011;44845;51.444;7.460;2023-07-29T03:18:47;1.60;;;1.40;;
59054;SDS011;44845;51.444;7.460;2023-07-29T03:21:14;3.45;;;1.52;;
59054;SDS011;44845;51.444;7.460;2023-07-29T03:23:39;4.53;;;1.75;;
59054;SDS011;44845;51.444;7.460;2023-07-29T03:26:04;2.28;;;2.08;;
59054;SDS011;44845;51.444;7.460;2023-07-29T03:28:35;3.13;;;2.17;;
59054;SDS011;44845;51.444;7.460;2023-07-29T03:31:03;4.47;;;2.15;;
59054;SDS011;44845;51.444;7.460;2023-07-29T03:33:28;4.25;;;1.95;;
59054;SDS011;44845;51.444;7.460;2023-07-29T03:35:54;1.80;;;1.70;;
59054;SDS011;44845;51.444;7.460;2023-07-29T03:38:19;2.60;;;2.40;;
59054;SDS011;44845;51.444;7.460;2023-07-29T03:40:45;6.22;;;1.90;;
59054;SDS011;44845;51.444;7.460;2023-07-29T03:43:11;5.30;;;2.00;;
59054;SDS011;44845;51.444;7.460;2023-07-29T03:45:36;5.32;;;2.50;;
59054;SDS011;44845;51.444;7.460;2023-07-29T03:48:03;2.45;;;2.33;;
59054;SDS011;44845;51.444;7.460;2023-07-29T03:50:29;7.80;;;2.72;;
59054;SDS011;44845;51.444;7.460;2023-07-29T03:52:55;3.92;;;2.08;;
59054;SDS011;44845;51.444;7.460;2023-07-29T03:55:20;8.88;;;2.70;;
59054;SDS011;44845;51.444;7.460;2023-07-29T03:57:46;4.72;;;2.22;;
59054;SDS011;44845;51.444;7.460;2023-07-29T04:00:11;3.28;;;2.63;;
59054;SDS011;44845;51.444;7.460;2023-07-29T04:02:36;4.88;;;2.53;;
59054;SDS011;44845;51.444;7.460;2023-07-29T04:05:05;8.43;;;2.30;;
59054;SDS011;44845;51.444;7.460;2023-07-29T04:07:33;14.13;;;3.65;;
59054;SDS011;44845;51.444;7.460;2023-07-29T04:09:59;7.78;;;2.60;;
59054;SDS011;44845;51.444;7.460;2023-07-29T04:12:24;8.07;;;2.63;;
59054;SDS011;44845;51.444;7.460;2023-07-29T04:14:50;7.32;;;2.83;;
59054;SDS011;44845;51.444;7.460;2023-07-29T04:17:15;8.25;;;2.35;;
59054;SDS011;44845;51.444;7.460;2023-07-29T04:19:40;3.33;;;2.65;;
59054;SDS011;44845;51.444;7.460;2023-07-29T04:22:06;6.50;;;2.70;;
59054;SDS011;44845;51.444;7.460;2023-07-29T04:24:31;6.75;;;2.50;;
59054;SDS011;44845;51.444;7.460;2023-07-29T04:26:57;6.53;;;2.70;;
59054;SDS011;44845;51.444;7.460;2023-07-29T04:29:22;3.95;;;2.42;;
59054;SDS011;44845;51.444;7.460;2023-07-29T04:31:48;6.78;;;2.25;;
59054;SDS011;44845;51.444;7.460;2023-07-29T04:34:14;3.53;;;2.40;;
59054;SDS011;44845;51.444;7.460;2023-07-29T04:36:39;6.20;;;2.53;;
59054;SDS011;44845;51.444;7.460;2023-07-29T04:39:05;2.90;;;2.50;;
59054;SDS011;44845;51.444;7.460;2023-07-29T04:41:30;4.55;;;3.10;;
59054;SDS011;44845;51.444;7.460;2023-07-29T04:43:55;5.85;;;3.30;;
59054;SDS011;44845;51.444;7.460;2023-07-29T04:46:21;6.10;;;3.30;;
59054;SDS011;44845;51.444;7.460;2023-07-29T04:48:46;6.68;;;3.38;;
59054;SDS011;44845;51.444;7.460;2023-07-29T04:51:11;10.80;;;3.53;;
59054;SDS011;44845;51.444;7.460;2023-07-29T04:53:37;8.95;;;3.70;;
59054;SDS011;44845;51.444;7.460;2023-07-29T04:56:03;4.88;;;3.30;;
59054;SDS011;44845;51.444;7.460;2023-07-29T04:58:28;3.95;;;3.50;;
59054;SDS011;44845;51.444;7.460;2023-07-29T05:00:55;5.43;;;3.50;;
59054;SDS011;44845;51.444;7.460;2023-07-29T05:03:23;4.50;;;4.05;;
59054;SDS011;44845;51.444;7.460;2023-07-29T05:05:48;6.05;;;4.20;;
59054;SDS011;44845;51.444;7.460;2023-07-29T05:08:14;5.38;;;4.07;;
59054;SDS011;44845;51.444;7.460;2023-07-29T05:10:39;5.82;;;4.25;;
59054;SDS011;44845;51.444;7.460;2023-07-29T05:13:04;7.20;;;4.50;;
59054;SDS011;44845;51.444;7.460;2023-07-29T05:15:30;6.38;;;4.75;;
59054;SDS011;44845;51.444;7.460;2023-07-29T05:17:55;4.68;;;4.38;;
59054;SDS011;44845;51.444;7.460;2023-07-29T05:20:21;11.13;;;5.18;;
59054;SDS011;44845;51.444;7.460;2023-07-29T05:22:46;6.97;;;5.50;;
59054;SDS011;44845;51.444;7.460;2023-07-29T05:25:12;11.27;;;5.72;;
59054;SDS011;44845;51.444;7.460;2023-07-29T05:27:37;8.60;;;6.10;;
59054;SDS011;44845;51.444;7.460;2023-07-29T05:30:02;9.10;;;6.15;;
59054;SDS011;44845;51.444;7.460;2023-07-29T05:32:28;8.73;;;7.93;;
59054;SDS011;44845;51.444;7.460;2023-07-29T05:34:54;8.13;;;7.32;;
59054;SDS011;44845;51.444;7.460;2023-07-29T05:37:20;7.90;;;7.05;;
59054;SDS011;44845;51.444;7.460;2023-07-29T05:39:45;7.43;;;6.72;;
59054;SDS011;44845;51.444;7.460;2023-07-29T05:42:10;10.88;;;8.15;;
59054;SDS011;44845;51.444;7.460;2023-07-29T05:44:36;11.65;;;9.20;;
59054;SDS011;44845;51.444;7.460;2023-07-29T05:47:01;10.85;;;9.60;;
59054;SDS011;44845;51.444;7.460;2023-07-29T05:49:26;10.77;;;9.68;;
59054;SDS011;44845;51.444;7.460;2023-07-29T05:51:52;12.80;;;10.10;;
59054;SDS011;44845;51.444;7.460;2023-07-29T05:54:18;16.58;;;10.30;;
59054;SDS011;44845;51.444;7.460;2023-07-29T05:56:43;15.07;;;11.25;;
59054;SDS011;44845;51.444;7.460;2023-07-29T05:59:09;14.27;;;11.20;;
59054;SDS011;44845;51.444;7.460;2023-07-29T06:01:34;15.43;;;11.32;;
59054;SDS011;44845;51.444;7.460;2023-07-29T06:04:00;13.60;;;11.38;;
59054;SDS011;44845;51.444;7.460;2023-07-29T06:06:25;14.18;;;12.15;;
59054;SDS011;44845;51.444;7.460;2023-07-29T06:08:51;15.55;;;13.13;;
59054;SDS011;44845;51.444;7.460;2023-07-29T06:11:16;17.13;;;13.13;;
59054;SDS011;44845;51.444;7.460;2023-07-29T06:13:42;21.58;;;14.00;;
59054;SDS011;44845;51.444;7.460;2023-07-29T06:16:07;20.92;;;11.95;;
59054;SDS011;44845;51.444;7.460;2023-07-29T06:18:32;12.85;;;10.85;;
59054;SDS011;44845;51.444;7.460;2023-07-29T06:20:58;12.52;;;10.50;;
59054;SDS011;44845;51.444;7.460;2023-07-29T06:23:23;17.10;;;10.88;;
59054;SDS011;44845;51.444;7.460;2023-07-29T06:25:48;16.77;;;10.23;;
59054;SDS011;44845;51.444;7.460;2023-07-29T06:28:14;14.75;;;9.90;;
59054;SDS011;44845;51.444;7.460;2023-07-29T06:30:39;11.85;;;8.85;;
59054;SDS011;44845;51.444;7.460;2023-07-29T06:33:05;16.40;;;9.48;;
59054;SDS011;44845;51.444;7.460;2023-07-29T06:35:31;12.70;;;8.73;;
59054;SDS011;44845;51.444;7.460;2023-07-29T06:37:56;15.82;;;8.55;;
59054;SDS011;44845;51.444;7.460;2023-07-29T06:40:22;10.70;;;6.88;;
59054;SDS011;44845;51.444;7.460;2023-07-29T06:42:47;12.35;;;7.93;;
59054;SDS011;44845;51.444;7.460;2023-07-29T06:45:13;11.63;;;7.85;;
59054;SDS011;44845;51.444;7.460;2023-07-29T06:47:38;10.00;;;8.15;;
59054;SDS011;44845;51.444;7.460;2023-07-29T06:50:03;9.10;;;8.07;;
59054;SDS011;44845;51.444;7.460;2023-07-29T06:52:29;9.63;;;7.07;;
59054;SDS011;44845;51.444;7.460;2023-07-29T06:54:55;8.88;;;7.28;;
59054;SDS011;44845;51.444;7.460;2023-07-29T06:57:20;14.05;;;7.10;;
59054;SDS011;44845;51.444;7.460;2023-07-29T06:59:45;7.72;;;7.00;;
59054;SDS011;44845;51.444;7.460;2023-07-29T07:02:11;6.45;;;5.43;;
59054;SDS011;44845;51.444;7.460;2023-07-29T07:04:36;6.47;;;5.00;;
59054;SDS011;44845;51.444;7.460;2023-07-29T07:07:01;6.20;;;4.72;;
59054;SDS011;44845;51.444;7.460;2023-07-29T07:09:27;5.68;;;4.30;;
59054;SDS011;44845;51.444;7.460;2023-07-29T07:11:52;5.30;;;3.75;;
59054;SDS011;44845;51.444;7.460;2023-07-29T07:14:17;5.07;;;3.30;;
59054;SDS011;44845;51.444;7.460;2023-07-29T07:16:43;4.20;;;3.50;;
59054;SDS011;44845;51.444;7.460;2023-07-29T07:19:09;4.97;;;3.45;;
59054;SDS011;44845;51.444;7.460;2023-07-29T07:21:34;5.93;;;3.75;;
59054;SDS011;44845;51.444;7.460;2023-07-29T07:23:59;5.70;;;3.05;;
59054;SDS011;44845;51.444;7.460;2023-07-29T07:26:25;4.57;;;3.50;;
59054;SDS011;44845;51.444;7.460;2023-07-29T07:28:50;6.15;;;3.17;;
59054;SDS011;44845;51.444;7.460;2023-07-29T07:31:16;5.53;;;2.83;;
59054;SDS011;44845;51.444;7.460;2023-07-29T07:33:42;5.05;;;2.47;;
59054;SDS011;44845;51.444;7.460;2023-07-29T07:36:07;5.32;;;2.75;;
59054;SDS011;44845;51.444;7.460;2023-07-29T07:38:32;6.03;;;3.15;;
59054;SDS011;44845;51.444;7.460;2023-07-29T07:40:58;5.28;;;2.20;;
59054;SDS011;44845;51.444;7.460;2023-07-29T07:43:23;4.55;;;2.25;;
59054;SDS011;44845;51.444;7.460;2023-07-29T07:45:49;4.28;;;2.33;;
59054;SDS011;44845;51.444;7.460;2023-07-29T07:48:16;3.08;;;2.00;;
59054;SDS011;44845;51.444;7.460;2023-07-29T07:50:45;7.68;;;2.28;;
59054;SDS011;44845;51.444;7.460;2023-07-29T07:53:10;4.50;;;1.90;;
59054;SDS011;44845;51.444;7.460;2023-07-29T07:55:35;4.55;;;2.25;;
59054;SDS011;44845;51.444;7.460;2023-07-29T07:58:01;2.17;;;1.52;;
59054;SDS011;44845;51.444;7.460;2023-07-29T08:00:26;5.70;;;1.80;;
59054;SDS011;44845;51.444;7.460;2023-07-29T08:02:51;6.10;;;1.77;;
59054;SDS011;44845;51.444;7.460;2023-07-29T08:05:17;2.67;;;1.80;;
59054;SDS011;44845;51.444;7.460;2023-07-29T08:07:43;4.18;;;1.60;;
59054;SDS011;44845;51.444;7.460;2023-07-29T08:10:08;3.85;;;1.48;;
59054;SDS011;44845;51.444;7.460;2023-07-29T08:12:34;2.85;;;1.30;;
59054;SDS011;44845;51.444;7.460;2023-07-29T08:14:59;3.03;;;1.50;;
59054;SDS011;44845;51.444;7.460;2023-07-29T08:17:24;1.27;;;1.17;;
59054;SDS011;44845;51.444;7.460;2023-07-29T08:19:50;2.28;;;1.45;;
59054;SDS011;44845;51.444;7.460;2023-07-29T08:22:15;3.17;;;1.00;;
59054;SDS011;44845;51.444;7.460;2023-07-29T08:24:42;1.95;;;1.30;;
59054;SDS011;44845;51.444;7.460;2023-07-29T08:27:07;1.25;;;1.08;;
59054;SDS011;44845;51.444;7.460;2023-07-29T08:29:33;2.92;;;1.08;;
59054;SDS011;44845;51.444;7.460;2023-07-29T08:31:58;2.50;;;1.02;;
59054;SDS011;44845;51.444;7.460;2023-07-29T08:34:23;2.80;;;1.02;;
59054;SDS011;44845;51.444;7.460;2023-07-29T08:36:49;2.22;;;1.10;;
59054;SDS011;44845;51.444;7.460;2023-07-29T08:39:14;1.45;;;1.10;;
59054;SDS011;44845;51.444;7.460;2023-07-29T08:41:48;3.15;;;1.10;;
59054;SDS011;44845;51.444;7.460;2023-07-29T08:44:21;1.88;;;1.20;;
59054;SDS011;44845;51.444;7.460;2023-07-29T08:46:48;4.43;;;0.90;;
59054;SDS011;44845;51.444;7.460;2023-07-29T08:49:15;2.60;;;0.95;;
59054;SDS011;44845;51.444;7.460;2023-07-29T08:51:44;3.28;;;0.90;;
59054;SDS011;44845;51.444;7.460;2023-07-29T08:54:11;2.08;;;0.82;;
59054;SDS011;44845;51.444;7.460;2023-07-29T08:56:38;1.52;;;0.80;;
59054;SDS011;44845;51.444;7.460;2023-07-29T08:59:03;2.20;;;1.00;;
59054;SDS011;44845;51.444;7.460;2023-07-29T09:01:30;1.23;;;0.88;;
59054;SDS011;44845;51.444;7.460;2023-07-29T09:03:55;1.33;;;0.90;;
59054;SDS011;44845;51.444;7.460;2023-07-29T09:06:21;1.33;;;0.82;;
59054;SDS011;44845;51.444;7.460;2023-07-29T09:08:49;6.30;;;0.82;;
59054;SDS011;44845;51.444;7.460;2023-07-29T09:11:15;1.85;;;0.93;;
59054;SDS011;44845;51.444;7.460;2023-07-29T09:13:42;1.00;;;0.80;;
59054;SDS011;44845;51.444;7.460;2023-07-29T09:16:08;1.30;;;0.80;;
59054;SDS011;44845;51.444;7.460;2023-07-29T09:18:34;4.15;;;0.82;;
59054;SDS011;44845;51.444;7.460;2023-07-29T09:20:59;9.82;;;1.00;;
59054;SDS011;44845;51.444;7.460;2023-07-29T09:23:25;1.58;;;0.70;;
59054;SDS011;44845;51.444;7.460;2023-07-29T09:25:53;1.48;;;1.10;;
59054;SDS011;44845;51.444;7.460;2023-07-29T09:28:25;3.15;;;0.93;;
59054;SDS011;44845;51.444;7.460;2023-07-29T09:30:52;0.70;;;0.70;;
59054;SDS011;44845;51.444;7.460;2023-07-29T09:33:18;1.17;;;0.90;;
59054;SDS011;44845;51.444;7.460;2023-07-29T09:35:43;2.70;;;1.00;;
59054;SDS011;44845;51.444;7.460;2023-07-29T09:38:13;1.08;;;0.98;;
59054;SDS011;44845;51.444;7.460;2023-07-29T09:40:40;1.10;;;0.98;;
59054;SDS011;44845;51.444;7.460;2023-07-29T09:43:06;2.80;;;1.00;;
59054;SDS011;44845;51.444;7.460;2023-07-29T09:45:34;1.77;;;0.90;;
59054;SDS011;44845;51.444;7.460;2023-07-29T09:48:00;3.63;;;1.13;;
59054;SDS011;44845;51.444;7.460;2023-07-29T09:50:27;1.67;;;1.00;;
59054;SDS011;44845;51.444;7.460;2023-07-29T09:52:53;0.70;;;0.70;;
59054;SDS011;44845;51.444;7.460;2023-07-29T09:55:21;1.05;;;0.85;;
59054;SDS011;44845;51.444;7.460;2023-07-29T09:57:48;1.30;;;0.93;;
59054;SDS011;44845;51.444;7.460;2023-07-29T10:00:18;1.13;;;1.00;;
59054;SDS011;44845;51.444;7.460;2023-07-29T10:02:44;7.43;;;0.80;;
59054;SDS011;44845;51.444;7.460;2023-07-29T10:05:10;1.95;;;0.70;;
59054;SDS011;44845;51.444;7.460;2023-07-29T10:07:39;2.08;;;0.73;;
59054;SDS011;44845;51.444;7.460;2023-07-29T10:10:05;1.83;;;0.50;;
59054;SDS011;44845;51.444;7.460;2023-07-29T10:12:32;4.20;;;0.73;;
59054;SDS011;44845;51.444;7.460;2023-07-29T10:14:59;1.63;;;0.77;;
59054;SDS011;44845;51.444;7.460;2023-07-29T10:17:26;0.93;;;0.93;;
59054;SDS011;44845;51.444;7.460;2023-07-29T10:19:52;5.00;;;1.00;;
59054;SDS011;44845;51.444;7.460;2023-07-29T10:22:20;2.55;;;0.98;;
59054;SDS011;44845;51.444;7.460;2023-07-29T10:24:47;1.02;;;1.02;;
59054;SDS011;44845;51.444;7.460;2023-07-29T10:27:14;4.78;;;1.27;;
59054;SDS011;44845;51.444;7.460;2023-07-29T10:29:43;1.42;;;1.10;;
59054;SDS011;44845;51.444;7.460;2023-07-29T10:32:10;4.63;;;1.10;;
59054;SDS011;44845;51.444;7.460;2023-07-29T10:34:36;2.55;;;1.10;;
59054;SDS011;44845;51.444;7.460;2023-07-29T10:37:03;1.15;;;0.90;;
59054;SDS011;44845;51.444;7.460;2023-07-29T10:39:37;0.93;;;0.82;;
59054;SDS011;44845;51.444;7.460;2023-07-29T10:42:05;2.13;;;0.68;;
59054;SDS011;44845;51.444;7.460;2023-07-29T10:49:44;0.80;;;0.80;;
59054;SDS011;44845;51.444;7.460;2023-07-29T10:52:27;1.02;;;0.85;;
59054;SDS011;44845;51.444;7.460;2023-07-29T10:55:04;0.65;;;0.65;;
59054;SDS011;44845;51.444;7.460;2023-07-29T10:57:49;3.70;;;0.65;;
59054;SDS011;44845;51.444;7.460;2023-07-29T11:00:15;0.60;;;0.60;;
59054;SDS011;44845;51.444;7.460;2023-07-29T11:02:40;2.72;;;0.90;;
59054;SDS011;44845;51.444;7.460;2023-07-29T11:05:07;2.15;;;0.80;;
59054;SDS011;44845;51.444;7.460;2023-07-29T11:07:44;2.35;;;1.10;;
59054;SDS011;44845;51.444;7.460;2023-07-29T11:10:11;1.73;;;1.02;;
59054;SDS011;44845;51.444;7.460;2023-07-29T11:18:00;1.50;;;0.85;;
59054;SDS011;44845;51.444;7.460;2023-07-29T11:20:30;1.92;;;1.13;;
59054;SDS011;44845;51.444;7.460;2023-07-29T11:22:57;2.22;;;1.25;;
59054;SDS011;44845;51.444;7.460;2023-07-29T11:25:24;3.30;;;1.25;;
59054;SDS011;44845;51.444;7.460;2023-07-29T11:27:53;2.25;;;0.90;;
59054;SDS011;44845;51.444;7.460;2023-07-29T11:30:20;0.70;;;0.70;;
59054;SDS011;44845;51.444;7.460;2023-07-29T11:32:45;1.30;;;0.73;;
59054;SDS011;44845;51.444;7.460;2023-07-29T11:35:13;2.70;;;0.90;;
59054;SDS011;44845;51.444;7.460;2023-07-29T11:37:40;0.65;;;0.65;;
59054;SDS011;44845;51.444;7.460;2023-07-29T11:40:07;3.53;;;0.90;;
59054;SDS011;44845;51.444;7.460;2023-07-29T11:42:35;1.02;;;0.80;;
59054;SDS011;44845;51.444;7.460;2023-07-29T11:45:02;0.95;;;0.68;;
59054;SDS011;44845;51.444;7.460;2023-07-29T11:47:29;3.25;;;1.00;;
59054;SDS011;44845;51.444;7.460;2023-07-29T11:49:57;1.60;;;0.80;;
59054;SDS011;44845;51.444;7.460;2023-07-29T11:52:24;1.30;;;0.80;;
59054;SDS011;44845;51.444;7.460;2023-07-29T11:54:49;1.92;;;0.70;;
59054;SDS011;44845;51.444;7.460;2023-07-29T11:57:15;4.10;;;0.85;;
59054;SDS011;44845;51.444;7.460;2023-07-29T11:59:42;1.75;;;0.70;;
59054;SDS011;44845;51.444;7.460;2023-07-29T12:02:09;2.03;;;0.75;;
59054;SDS011;44845;51.444;7.460;2023-07-29T12:04:36;1.25;;;0.90;;
59054;SDS011;44845;51.444;7.460;2023-07-29T12:07:03;1.10;;;0.77;;
59054;SDS011;44845;51.444;7.460;2023-07-29T12:09:29;5.60;;;0.90;;
59054;SDS011;44845;51.444;7.460;2023-07-29T12:11:55;2.88;;;2.10;;
59054;SDS011;44845;51.444;7.460;2023-07-29T12:14:21;4.03;;;1.90;;
59054;SDS011;44845;51.444;7.460;2023-07-29T12:16:50;4.45;;;1.50;;
59054;SDS011;44845;51.444;7.460;2023-07-29T12:19:17;1.75;;;1.00;;
59054;SDS011;44845;51.444;7.460;2023-07-29T12:21:43;2.70;;;1.30;;
59054;SDS011;44845;51.444;7.460;2023-07-29T12:24:08;3.13;;;1.20;;
59054;SDS011;44845;51.444;7.460;2023-07-29T12:26:35;2.47;;;1.15;;
59054;SDS011;44845;51.444;7.460;2023-07-29T12:29:11;2.38;;;1.60;;
59054;SDS011;44845;51.444;7.460;2023-07-29T12:31:41;4.72;;;2.17;;
59054;SDS011;44845;51.444;7.460;2023-07-29T12:34:07;3.08;;;2.50;;
59054;SDS011;44845;51.444;7.460;2023-07-29T12:36:42;1.63;;;1.27;;
59054;SDS011;44845;51.444;7.460;2023-07-29T12:39:15;4.80;;;1.77;;
59054;SDS011;44845;51.444;7.460;2023-07-29T12:41:41;2.17;;;1.63;;
59054;SDS011;44845;51.444;7.460;2023-07-29T12:44:07;3.55;;;1.30;;
59054;SDS011;44845;51.444;7.460;2023-07-29T12:46:32;1.50;;;1.40;;
59054;SDS011;44845;51.444;7.460;2023-07-29T12:48:57;2.15;;;1.30;;
59054;SDS011;44845;51.444;7.460;2023-07-29T12:51:23;2.28;;;1.00;;
59054;SDS011;44845;51.444;7.460;2023-07-29T12:53:48;3.25;;;0.90;;
59054;SDS011;44845;51.444;7.460;2023-07-29T12:56:13;2.47;;;0.95;;
59054;SDS011;44845;51.444;7.460;2023-07-29T12:58:39;1.13;;;1.00;;
59054;SDS011;44845;51.444;7.460;2023-07-29T13:01:04;1.23;;;1.10;;
59054;SDS011;44845;51.444;7.460;2023-07-29T13:03:29;2.33;;;1.20;;
59054;SDS011;44845;51.444;7.460;2023-07-29T13:05:55;2.35;;;1.48;;
59054;SDS011;44845;51.444;7.460;2023-07-29T13:08:20;5.03;;;2.03;;
59054;SDS011;44845;51.444;7.460;2023-07-29T13:10:45;3.78;;;1.70;;
59054;SDS011;44845;51.444;7.460;2023-07-29T13:13:11;2.80;;;1.42;;
59054;SDS011;44845;51.444;7.460;2023-07-29T13:15:36;4.57;;;1.90;;
59054;SDS011;44845;51.444;7.460;2023-07-29T13:18:02;4.20;;;2.20;;
59054;SDS011;44845;51.444;7.460;2023-07-29T13:20:27;3.00;;;2.40;;
59054;SDS011;44845;51.444;7.460;2023-07-29T13:22:54;1.88;;;1.38;;
59054;SDS011;44845;51.444;7.460;2023-07-29T13:25:19;4.00;;;1.55;;
59054;SDS011;44845;51.444;7.460;2023-07-29T13:27:45;5.63;;;1.73;;
59054;SDS011;44845;51.444;7.460;2023-07-29T13:30:10;2.90;;;1.25;;
59054;SDS011;44845;51.444;7.460;2023-07-29T13:32:35;4.65;;;1.60;;
59054;SDS011;44845;51.444;7.460;2023-07-29T13:35:01;8.88;;;1.92;;
59054;SDS011;44845;51.444;7.460;2023-07-29T13:37:26;1.65;;;1.27;;
59054;SDS011;44845;51.444;7.460;2023-07-29T13:39:51;4.50;;;1.33;;
59054;SDS011;44845;51.444;7.460;2023-07-29T13:42:17;1.23;;;1.13;;
59054;SDS011;44845;51.444;7.460;2023-07-29T13:44:42;1.80;;;1.13;;
59054;SDS011;44845;51.444;7.460;2023-07-29T13:47:07;6.00;;;1.33;;
59054;SDS011;44845;51.444;7.460;2023-07-29T13:49:33;3.65;;;1.40;;
59054;SDS011;44845;51.444;7.460;2023-07-29T13:51:58;2.05;;;1.80;;
59054;SDS011;44845;51.444;7.460;2023-07-29T13:54:23;1.70;;;1.60;;
59054;SDS011;44845;51.444;7.460;2023-07-29T13:56:49;1.88;;;1.17;;
59054;SDS011;44845;51.444;7.460;2023-07-29T13:59:14;1.35;;;1.10;;
59054;SDS011;44845;51.444;7.460;2023-07-29T14:01:39;3.80;;;1.55;;
59054;SDS011;44845;51.444;7.460;2023-07-29T14:04:05;1.45;;;1.13;;
59054;SDS011;44845;51.444;7.460;2023-07-29T14:06:30;1.48;;;1.38;;
59054;SDS011;44845;51.444;7.460;2023-07-29T14:08:55;1.60;;;1.33;;
59054;SDS011;44845;51.444;7.460;2023-07-29T14:11:21;1.30;;;1.20;;
59054;SDS011;44845;51.444;7.460;2023-07-29T14:13:46;2.08;;;1.33;;
59054;SDS011;44845;51.444;7.460;2023-07-29T14:16:11;2.65;;;1.55;;
59054;SDS011;44845;51.444;7.460;2023-07-29T14:18:37;1.25;;;1.20;;
59054;SDS011;44845;51.444;7.460;2023-07-29T14:21:02;5.85;;;1.33;;
59054;SDS011;44845;51.444;7.460;2023-07-29T14:23:28;2.15;;;1.10;;
59054;SDS011;44845;51.444;7.460;2023-07-29T14:25:53;1.35;;;1.25;;
59054;SDS011;44845;51.444;7.460;2023-07-29T14:28:18;2.03;;;1.50;;
59054;SDS011;44845;51.444;7.460;2023-07-29T14:30:44;1.33;;;1.23;;
59054;SDS011;44845;51.444;7.460;2023-07-29T14:33:09;2.53;;;1.50;;
59054;SDS011;44845;51.444;7.460;2023-07-29T14:35:35;3.53;;;1.42;;
59054;SDS011;44845;51.444;7.460;2023-07-29T14:38:00;1.88;;;1.42;;
59054;SDS011;44845;51.444;7.460;2023-07-29T14:40:26;4.63;;;1.60;;
59054;SDS011;44845;51.444;7.460;2023-07-29T14:42:52;2.47;;;1.63;;
59054;SDS011;44845;51.444;7.460;2023-07-29T14:45:17;2.05;;;1.50;;
59054;SDS011;44845;51.444;7.460;2023-07-29T14:47:42;7.07;;;1.80;;
59054;SDS011;44845;51.444;7.460;2023-07-29T14:50:08;1.83;;;1.50;;
59054;SDS011;44845;51.444;7.460;2023-07-29T14:52:33;4.03;;;1.73;;